Time;durP1;ratioP1;P1;durP2;ratioP2;P2;SDS_P1;SDS_P2;PMS_P1;PMS_P2;Temp;Humidity;BMP_temperature;BMP_pressure;BME280_temperature;BME280_humidity;BME280_pressure;Samples;Min_cycle;Max_cycle;Signal;HPM_P1;HPM_P2
2023/04/03 00:00:46;;;;;;;2.20;1.40;;;;;;;;;;5091503;28;20281;-84
2023/04/03 00:03:14;;;;;;;1.30;1.30;;;;;;;;;;5092184;28;20212;-84
2023/04/03 00:05:43;;;;;;;1.10;1.10;;;;;;;;;;5091598;28;20250;-84
2023/04/03 00:08:11;;;;;;;1.20;1.20;;;;;;;;;;5091760;28;20189;-84
2023/04/03 00:10:39;;;;;;;2.73;2.57;;;;;;;;;;5092380;28;20197;-84
2023/04/03 00:13:08;;;;;;;1.40;1.40;;;;;;;;;;5095607;28;20279;-84
2023/04/03 00:15:37;;;;;;;0.93;0.93;;;;;;;;;;5095672;28;20211;-84
2023/04/03 00:18:07;;;;;;;1.03;1.00;;;;;;;;;;5096451;28;20274;-84
2023/04/03 00:20:36;;;;;;;1.50;1.50;;;;;;;;;;5095364;28;20291;-84
2023/04/03 00:23:05;;;;;;;1.00;1.00;;;;;;;;;;5095342;28;20247;-84
2023/04/03 00:25:33;;;;;;;1.43;1.30;;;;;;;;;;5095631;28;20193;-84
2023/04/03 00:28:02;;;;;;;1.53;1.43;;;;;;;;;;5095469;28;20328;-84
2023/04/03 00:30:30;;;;;;;1.90;1.50;;;;;;;;;;5095506;28;20197;-84
2023/04/03 00:33:00;;;;;;;1.03;1.03;;;;;;;;;;5095487;28;20274;-84
2023/04/03 00:35:30;;;;;;;2.87;2.67;;;;;;;;;;5095379;28;20371;-83
2023/04/03 00:37:59;;;;;;;1.10;1.10;;;;;;;;;;5095307;28;20217;-84
2023/04/03 00:40:28;;;;;;;1.90;1.53;;;;;;;;;;5095176;28;20221;-84
2023/04/03 00:42:58;;;;;;;1.10;1.10;;;;;;;;;;5095345;28;20208;-84
2023/04/03 00:45:28;;;;;;;1.07;1.07;;;;;;;;;;5095505;28;20257;-84
2023/04/03 00:47:59;;;;;;;1.47;1.43;;;;;;;;;;5095384;28;20231;-84
2023/04/03 00:50:28;;;;;;;1.20;1.20;;;;;;;;;;5094722;28;20200;-84
2023/04/03 00:52:59;;;;;;;1.73;1.63;;;;;;;;;;5095403;28;20225;-84
2023/04/03 00:55:27;;;;;;;2.00;1.67;;;;;;;;;;5095330;28;20448;-84
2023/04/03 00:57:56;;;;;;;1.07;1.07;;;;;;;;;;5094875;28;20279;-84
2023/04/03 01:00:25;;;;;;;1.23;1.23;;;;;;;;;;5094520;28;20251;-84
2023/04/03 01:02:54;;;;;;;1.57;1.47;;;;;;;;;;5094839;28;20200;-84
2023/04/03 01:05:22;;;;;;;1.40;1.40;;;;;;;;;;5094735;28;20230;-84
2023/04/03 01:07:52;;;;;;;1.40;1.30;;;;;;;;;;5094879;28;20235;-84
2023/04/03 01:10:22;;;;;;;3.40;1.67;;;;;;;;;;5095110;28;20201;-84
2023/04/03 01:12:51;;;;;;;1.60;1.47;;;;;;;;;;5094741;28;20197;-84
2023/04/03 01:15:21;;;;;;;1.10;1.10;;;;;;;;;;5094737;28;20240;-84
2023/04/03 01:17:50;;;;;;;1.13;1.13;;;;;;;;;;5094558;28;20201;-84
2023/04/03 01:20:36;;;;;;;1.20;1.20;;;;;;;;;;5094356;28;20319;-83
2023/04/03 01:23:09;;;;;;;3.77;1.90;;;;;;;;;;5094326;28;20232;-84
2023/04/03 01:25:40;;;;;;;1.63;1.53;;;;;;;;;;5094433;28;20200;-84
2023/04/03 01:28:09;;;;;;;1.30;1.30;;;;;;;;;;5094371;28;20197;-84
2023/04/03 01:30:40;;;;;;;3.07;2.80;;;;;;;;;;5094066;28;20197;-84
2023/04/03 01:33:10;;;;;;;1.10;1.10;;;;;;;;;;5093889;28;20220;-84
2023/04/03 01:35:39;;;;;;;2.30;1.47;;;;;;;;;;5094265;28;20284;-84
2023/04/03 01:38:07;;;;;;;2.10;1.40;;;;;;;;;;5094176;28;20246;-84
2023/04/03 01:40:36;;;;;;;2.00;1.90;;;;;;;;;;5093978;28;20350;-84
2023/04/03 01:43:04;;;;;;;1.10;1.10;;;;;;;;;;5093943;28;20197;-84
2023/04/03 01:45:33;;;;;;;1.17;1.17;;;;;;;;;;5094271;28;20254;-84
2023/04/03 01:48:01;;;;;;;2.43;1.73;;;;;;;;;;5093758;28;20201;-84
2023/04/03 01:50:31;;;;;;;0.90;0.90;;;;;;;;;;5094159;28;20203;-84
2023/04/03 01:53:00;;;;;;;0.90;0.90;;;;;;;;;;5094118;28;20273;-84
2023/04/03 01:55:28;;;;;;;1.10;1.10;;;;;;;;;;5094076;28;20197;-84
2023/04/03 01:57:57;;;;;;;1.13;1.13;;;;;;;;;;5093460;28;20193;-84
2023/04/03 02:00:26;;;;;;;1.43;1.30;;;;;;;;;;5093213;28;20230;-84
2023/04/03 02:02:55;;;;;;;2.90;1.97;;;;;;;;;;5093530;28;20232;-84
2023/04/03 02:05:23;;;;;;;1.53;1.43;;;;;;;;;;5093412;28;20212;-84
2023/04/03 02:07:53;;;;;;;0.90;0.90;;;;;;;;;;5093601;28;20272;-84
2023/04/03 02:10:21;;;;;;;2.00;1.07;;;;;;;;;;5093509;28;20281;-84
2023/04/03 02:12:50;;;;;;;1.20;1.20;;;;;;;;;;5093359;28;20292;-84
2023/04/03 02:15:18;;;;;;;2.10;2.10;;;;;;;;;;5093208;28;20197;-84
2023/04/03 02:17:47;;;;;;;1.23;1.17;;;;;;;;;;5093269;28;20222;-84
2023/04/03 02:20:15;;;;;;;1.70;1.60;;;;;;;;;;5092923;28;20213;-84
2023/04/03 02:22:44;;;;;;;1.07;1.07;;;;;;;;;;5093244;28;20300;-84
2023/04/03 02:25:13;;;;;;;1.60;1.50;;;;;;;;;;5093066;28;20495;-85
2023/04/03 02:27:42;;;;;;;1.13;1.13;;;;;;;;;;5093184;28;20210;-84
2023/04/03 02:30:10;;;;;;;1.60;1.50;;;;;;;;;;5093314;28;20366;-84
2023/04/03 02:32:39;;;;;;;0.90;0.90;;;;;;;;;;5092934;28;20189;-84
2023/04/03 02:35:08;;;;;;;1.40;1.40;;;;;;;;;;5092364;28;20197;-84
2023/04/03 02:37:37;;;;;;;0.80;0.80;;;;;;;;;;5093460;28;20258;-84
2023/04/03 02:40:06;;;;;;;1.40;1.30;;;;;;;;;;5093091;28;20295;-84
2023/04/03 02:42:36;;;;;;;0.93;0.93;;;;;;;;;;5092713;28;20287;-84
2023/04/03 02:45:05;;;;;;;1.10;1.10;;;;;;;;;;5093049;28;20201;-84
2023/04/03 02:47:33;;;;;;;3.40;1.10;;;;;;;;;;5093025;28;20193;-84
2023/04/03 02:50:02;;;;;;;0.90;0.90;;;;;;;;;;5092881;28;20301;-84
2023/04/03 02:52:30;;;;;;;1.00;1.00;;;;;;;;;;5092899;28;20228;-84
2023/04/03 02:54:59;;;;;;;1.50;1.33;;;;;;;;;;5092972;28;20216;-84
2023/04/03 02:57:27;;;;;;;2.00;1.33;;;;;;;;;;5092646;28;20300;-84
2023/04/03 02:59:57;;;;;;;1.63;1.53;;;;;;;;;;5092844;28;20253;-85
2023/04/03 03:02:25;;;;;;;2.50;2.30;;;;;;;;;;5092982;28;20309;-84
2023/04/03 03:04:54;;;;;;;3.60;1.50;;;;;;;;;;5092525;28;20197;-84
2023/04/03 03:07:22;;;;;;;1.00;1.00;;;;;;;;;;5092722;28;20211;-84
2023/04/03 03:09:50;;;;;;;1.13;1.10;;;;;;;;;;5092989;28;20258;-84
2023/04/03 03:12:21;;;;;;;0.93;0.93;;;;;;;;;;5092213;28;20224;-84
2023/04/03 03:14:49;;;;;;;1.03;1.03;;;;;;;;;;5092616;28;20196;-84
2023/04/03 03:17:19;;;;;;;0.93;0.93;;;;;;;;;;5092731;28;20261;-84
2023/04/03 03:19:48;;;;;;;1.20;1.20;;;;;;;;;;5092272;28;20193;-84
2023/04/03 03:22:16;;;;;;;1.10;1.10;;;;;;;;;;5092433;28;20286;-84
2023/04/03 03:24:45;;;;;;;0.90;0.90;;;;;;;;;;5091787;28;20244;-84
2023/04/03 03:27:13;;;;;;;1.47;1.40;;;;;;;;;;5092755;28;20266;-84
2023/04/03 03:29:41;;;;;;;1.33;1.23;;;;;;;;;;5092249;28;20241;-84
2023/04/03 03:32:10;;;;;;;1.73;1.73;;;;;;;;;;5092623;28;20287;-84
2023/04/03 03:34:40;;;;;;;2.13;1.93;;;;;;;;;;5091777;28;20260;-84
2023/04/03 03:37:08;;;;;;;1.80;1.60;;;;;;;;;;5092447;28;20209;-84
2023/04/03 03:39:36;;;;;;;2.00;1.20;;;;;;;;;;5091878;28;20214;-85
2023/04/03 03:42:05;;;;;;;1.57;1.47;;;;;;;;;;5092105;28;20315;-84
2023/04/03 03:44:33;;;;;;;1.37;1.37;;;;;;;;;;5092661;28;20193;-84
2023/04/03 03:47:02;;;;;;;1.20;1.20;;;;;;;;;;5096437;28;20201;-84
2023/04/03 03:49:31;;;;;;;1.50;1.50;;;;;;;;;;5096161;28;20199;-84
2023/04/03 03:52:01;;;;;;;1.17;1.17;;;;;;;;;;5096515;28;20237;-84
2023/04/03 03:54:29;;;;;;;3.10;2.13;;;;;;;;;;5095865;28;20224;-84
2023/04/03 03:56:57;;;;;;;1.90;1.77;;;;;;;;;;5096252;28;20210;-85
2023/04/03 03:59:26;;;;;;;1.13;1.13;;;;;;;;;;5096116;28;20211;-84
2023/04/03 04:01:54;;;;;;;4.23;1.97;;;;;;;;;;5096187;28;20213;-84
2023/04/03 04:04:23;;;;;;;1.93;1.73;;;;;;;;;;5095890;28;20257;-84
2023/04/03 04:06:51;;;;;;;1.83;1.73;;;;;;;;;;5095689;28;20215;-84
2023/04/03 04:09:21;;;;;;;2.03;1.93;;;;;;;;;;5096063;28;20228;-84
2023/04/03 04:11:49;;;;;;;3.30;2.30;;;;;;;;;;5095494;28;20200;-84
2023/04/03 04:14:20;;;;;;;5.83;2.53;;;;;;;;;;5095627;28;20237;-84
2023/04/03 04:16:48;;;;;;;2.70;2.50;;;;;;;;;;5095942;28;20197;-84
2023/04/03 04:19:17;;;;;;;1.10;1.10;;;;;;;;;;5095463;28;20197;-84
2023/04/03 04:21:45;;;;;;;1.17;1.17;;;;;;;;;;5095535;28;20247;-84
2023/04/03 04:24:13;;;;;;;1.90;1.63;;;;;;;;;;5094949;28;20243;-84
2023/04/03 04:26:43;;;;;;;1.30;1.30;;;;;;;;;;5095113;28;20204;-84
2023/04/03 04:29:11;;;;;;;1.60;1.53;;;;;;;;;;5095491;28;20296;-84
2023/04/03 04:31:40;;;;;;;1.07;1.07;;;;;;;;;;5095409;28;20203;-84
2023/04/03 04:34:08;;;;;;;1.97;1.97;;;;;;;;;;5095648;28;20241;-83
2023/04/03 04:36:37;;;;;;;1.00;1.00;;;;;;;;;;5095091;28;20204;-84
2023/04/03 04:39:05;;;;;;;0.90;0.90;;;;;;;;;;5095222;28;20240;-84
2023/04/03 04:41:34;;;;;;;1.33;1.33;;;;;;;;;;5094861;28;20278;-84
2023/04/03 04:44:04;;;;;;;1.00;1.00;;;;;;;;;;5095135;28;20190;-84
2023/04/03 04:46:33;;;;;;;1.80;1.77;;;;;;;;;;5095543;28;20233;-84
2023/04/03 04:49:02;;;;;;;1.13;1.13;;;;;;;;;;5094721;28;20193;-84
2023/04/03 04:51:30;;;;;;;1.40;1.40;;;;;;;;;;5094882;28;20301;-84
2023/04/03 04:54:12;;;;;;;1.53;1.43;;;;;;;;;;5094879;28;20199;-84
2023/04/03 04:56:40;;;;;;;1.20;1.20;;;;;;;;;;5093735;28;20226;-84
2023/04/03 04:59:10;;;;;;;1.10;1.10;;;;;;;;;;5094886;28;20212;-84
2023/04/03 05:01:38;;;;;;;2.23;2.13;;;;;;;;;;5094948;28;20276;-84
2023/04/03 05:04:07;;;;;;;3.07;1.40;;;;;;;;;;5094507;28;20189;-84
2023/04/03 05:06:36;;;;;;;1.20;1.20;;;;;;;;;;5094559;28;20234;-84
2023/04/03 05:09:05;;;;;;;0.90;0.90;;;;;;;;;;5094872;28;20235;-84
2023/04/03 05:11:35;;;;;;;2.13;1.80;;;;;;;;;;5094695;28;20234;-84
2023/04/03 05:14:05;;;;;;;1.10;1.10;;;;;;;;;;5095274;28;20204;-84
2023/04/03 05:16:35;;;;;;;2.07;2.03;;;;;;;;;;5094610;28;20250;-84
2023/04/03 05:19:03;;;;;;;2.37;2.27;;;;;;;;;;5094421;28;20203;-84
2023/04/03 05:21:32;;;;;;;2.00;1.90;;;;;;;;;;5094365;28;20188;-84
2023/04/03 05:24:02;;;;;;;1.20;1.20;;;;;;;;;;5094103;28;20266;-84
2023/04/03 05:26:31;;;;;;;1.23;1.23;;;;;;;;;;5094214;28;20203;-84
2023/04/03 05:29:00;;;;;;;1.50;1.40;;;;;;;;;;5094377;28;20267;-85
2023/04/03 05:31:29;;;;;;;1.37;1.37;;;;;;;;;;5094088;28;20207;-84
2023/04/03 05:33:59;;;;;;;1.53;1.47;;;;;;;;;;5094005;28;20227;-85
2023/04/03 05:36:28;;;;;;;1.43;1.43;;;;;;;;;;5093909;28;20261;-84
2023/04/03 05:38:57;;;;;;;1.87;1.70;;;;;;;;;;5094254;28;20204;-84
2023/04/03 05:41:25;;;;;;;1.80;1.70;;;;;;;;;;5094698;28;20201;-84
2023/04/03 05:43:54;;;;;;;1.70;1.63;;;;;;;;;;5094038;28;20247;-85
2023/04/03 05:46:22;;;;;;;1.00;1.00;;;;;;;;;;5093856;28;20205;-85
2023/04/03 05:48:51;;;;;;;2.03;1.43;;;;;;;;;;5093834;28;20299;-84
2023/04/03 05:51:23;;;;;;;1.20;1.20;;;;;;;;;;5094034;28;20207;-84
2023/04/03 05:53:54;;;;;;;0.90;0.90;;;;;;;;;;5093734;28;20192;-84
2023/04/03 05:56:22;;;;;;;0.80;0.80;;;;;;;;;;5093809;28;20207;-84
2023/04/03 05:58:50;;;;;;;0.90;0.90;;;;;;;;;;5095871;28;20194;-84
2023/04/03 06:01:19;;;;;;;2.33;2.23;;;;;;;;;;5094201;28;20189;-84
2023/04/03 06:03:47;;;;;;;1.10;1.10;;;;;;;;;;5093500;28;20223;-84
2023/04/03 06:06:16;;;;;;;1.67;1.57;;;;;;;;;;5093396;28;20250;-84
2023/04/03 06:08:46;;;;;;;1.00;1.00;;;;;;;;;;5092694;28;20207;-84
2023/04/03 06:11:14;;;;;;;1.50;1.40;;;;;;;;;;5093379;28;20294;-84
2023/04/03 06:13:43;;;;;;;1.67;1.63;;;;;;;;;;5093736;28;20192;-84
2023/04/03 06:16:15;;;;;;;1.00;1.00;;;;;;;;;;5093122;28;20210;-84
2023/04/03 06:18:43;;;;;;;1.50;1.40;;;;;;;;;;5093043;28;20201;-83
2023/04/03 06:21:12;;;;;;;1.50;1.50;;;;;;;;;;5093557;28;20205;-83
2023/04/03 06:23:40;;;;;;;2.77;1.53;;;;;;;;;;5092544;28;20289;-83
2023/04/03 06:26:10;;;;;;;3.00;2.40;;;;;;;;;;5093174;28;20208;-83
2023/04/03 06:28:38;;;;;;;2.77;1.53;;;;;;;;;;5093504;28;20236;-84
2023/04/03 06:31:07;;;;;;;2.43;2.23;;;;;;;;;;5092983;28;20204;-83
2023/04/03 06:33:35;;;;;;;1.20;1.20;;;;;;;;;;5093111;28;20205;-83
2023/04/03 06:36:06;;;;;;;3.00;2.53;;;;;;;;;;5093351;28;20237;-83
2023/04/03 06:38:35;;;;;;;1.33;1.33;;;;;;;;;;5092901;28;20442;-83
2023/04/03 06:41:03;;;;;;;1.73;1.63;;;;;;;;;;5092811;28;20200;-83
2023/04/03 06:43:33;;;;;;;4.47;2.03;;;;;;;;;;5093059;28;20224;-83
2023/04/03 06:46:02;;;;;;;4.27;2.27;;;;;;;;;;5092617;28;20208;-83
2023/04/03 06:48:33;;;;;;;1.57;1.50;;;;;;;;;;5092695;28;20203;-83
2023/04/03 06:51:02;;;;;;;5.43;3.17;;;;;;;;;;5092719;28;20306;-84
2023/04/03 06:53:30;;;;;;;2.13;1.93;;;;;;;;;;5092372;28;20292;-84
2023/04/03 06:55:59;;;;;;;2.27;2.13;;;;;;;;;;5092169;28;20219;-84
2023/04/03 06:58:27;;;;;;;1.30;1.30;;;;;;;;;;5092595;28;20451;-84
2023/04/03 07:00:57;;;;;;;6.83;4.23;;;;;;;;;;5092604;28;20204;-84
2023/04/03 07:03:26;;;;;;;1.80;1.70;;;;;;;;;;5092315;28;20274;-83
2023/04/03 07:05:55;;;;;;;2.53;1.60;;;;;;;;;;5092427;28;20229;-84
2023/04/03 07:08:25;;;;;;;1.70;1.53;;;;;;;;;;5092761;28;20204;-85
2023/04/03 07:10:54;;;;;;;2.77;2.47;;;;;;;;;;5092517;28;20213;-85
2023/04/03 07:13:22;;;;;;;2.23;1.67;;;;;;;;;;5092735;28;20197;-85
2023/04/03 07:15:50;;;;;;;3.23;1.63;;;;;;;;;;5092651;28;20203;-84
2023/04/03 07:18:21;;;;;;;2.97;2.73;;;;;;;;;;5092529;28;20204;-83
2023/04/03 07:20:49;;;;;;;3.93;2.60;;;;;;;;;;5091844;28;20296;-83
2023/04/03 07:23:18;;;;;;;4.20;2.43;;;;;;;;;;5092191;28;20237;-85
2023/04/03 07:25:47;;;;;;;2.17;1.93;;;;;;;;;;5092228;28;20295;-85
2023/04/03 07:28:16;;;;;;;3.00;2.77;;;;;;;;;;5092501;28;20247;-85
2023/04/03 07:30:45;;;;;;;2.60;2.40;;;;;;;;;;5092305;28;20193;-85
2023/04/03 07:33:14;;;;;;;1.73;1.60;;;;;;;;;;5092591;28;20219;-85
2023/04/03 07:35:44;;;;;;;1.27;1.27;;;;;;;;;;5092338;28;20617;-85
2023/04/03 07:38:13;;;;;;;4.10;2.10;;;;;;;;;;5092174;28;20208;-85
2023/04/03 07:40:42;;;;;;;1.73;1.50;;;;;;;;;;5092306;28;20311;-85
2023/04/03 07:43:10;;;;;;;2.97;2.33;;;;;;;;;;5091910;28;20319;-84
2023/04/03 07:45:39;;;;;;;1.97;1.63;;;;;;;;;;5092487;28;20200;-84
2023/04/03 07:48:08;;;;;;;3.87;2.10;;;;;;;;;;5092120;28;20266;-85
2023/04/03 07:50:36;;;;;;;1.07;1.07;;;;;;;;;;5091866;28;20268;-84
2023/04/03 07:53:06;;;;;;;1.80;1.70;;;;;;;;;;5092115;28;20501;-85
2023/04/03 07:55:37;;;;;;;3.13;2.00;;;;;;;;;;5092044;28;20227;-85
2023/04/03 07:58:08;;;;;;;2.20;1.70;;;;;;;;;;5091610;28;20201;-84
2023/04/03 08:00:36;;;;;;;2.20;1.93;;;;;;;;;;5092095;28;20233;-84
2023/04/03 08:03:05;;;;;;;1.57;1.47;;;;;;;;;;5092329;28;20197;-85
2023/04/03 08:05:38;;;;;;;1.80;1.70;;;;;;;;;;5092112;28;20228;-85
2023/04/03 08:08:09;;;;;;;3.33;2.20;;;;;;;;;;5091996;28;20238;-85
2023/04/03 08:10:37;;;;;;;1.87;1.40;;;;;;;;;;5091882;28;20196;-85
2023/04/03 08:13:06;;;;;;;2.37;1.80;;;;;;;;;;5091674;28;20213;-85
2023/04/03 08:15:35;;;;;;;4.73;2.10;;;;;;;;;;5092105;28;20205;-85
2023/04/03 08:18:04;;;;;;;4.33;2.77;;;;;;;;;;5091434;28;20207;-85
2023/04/03 08:20:33;;;;;;;2.13;1.93;;;;;;;;;;5091737;28;20200;-85
2023/04/03 08:23:02;;;;;;;1.73;1.57;;;;;;;;;;5091499;28;20305;-85
2023/04/03 08:25:31;;;;;;;1.90;1.80;;;;;;;;;;5091732;28;20213;-85
2023/04/03 08:28:01;;;;;;;7.33;1.77;;;;;;;;;;5091719;28;20213;-85
2023/04/03 08:30:30;;;;;;;3.97;2.47;;;;;;;;;;5091586;28;20235;-85
2023/04/03 08:32:58;;;;;;;2.97;2.13;;;;;;;;;;5093896;28;20227;-85
2023/04/03 08:35:30;;;;;;;0.90;0.90;;;;;;;;;;5094291;28;20363;-85
2023/04/03 08:38:01;;;;;;;3.17;2.37;;;;;;;;;;5099847;28;20201;-85
2023/04/03 08:40:31;;;;;;;2.40;1.67;;;;;;;;;;5101586;28;20205;-85
2023/04/03 08:43:06;;;;;;;2.00;1.53;;;;;;;;;;5106171;28;20265;-85
2023/04/03 08:45:39;;;;;;;2.93;2.03;;;;;;;;;;5109118;28;20302;-85
2023/04/03 08:48:10;;;;;;;2.47;1.80;;;;;;;;;;5111598;27;20200;-85
2023/04/03 08:50:41;;;;;;;2.20;1.77;;;;;;;;;;5105686;28;20253;-84
2023/04/03 08:53:14;;;;;;;1.87;1.60;;;;;;;;;;5105423;28;20222;-82
2023/04/03 08:55:45;;;;;;;2.03;1.63;;;;;;;;;;5098571;28;20254;-85
2023/04/03 08:58:14;;;;;;;2.07;1.60;;;;;;;;;;5104271;28;20203;-83
2023/04/03 09:00:46;;;;;;;3.00;1.93;;;;;;;;;;5104213;28;20294;-83
2023/04/03 09:03:15;;;;;;;1.87;1.77;;;;;;;;;;5103018;28;20200;-82
2023/04/03 09:05:46;;;;;;;2.37;1.43;;;;;;;;;;5103290;28;20250;-81
2023/04/03 09:08:20;;;;;;;1.40;1.30;;;;;;;;;;5100469;28;20840;-81
2023/04/03 09:10:51;;;;;;;1.57;1.47;;;;;;;;;;5096993;28;20237;-82
2023/04/03 09:13:28;;;;;;;2.60;1.67;;;;;;;;;;5103070;28;20243;-82
2023/04/03 09:15:58;;;;;;;1.20;1.20;;;;;;;;;;5100635;28;20205;-82
2023/04/03 09:18:30;;;;;;;1.53;1.37;;;;;;;;;;5093954;28;20253;-84
2023/04/03 09:21:06;;;;;;;4.90;2.40;;;;;;;;;;5100352;28;20308;-84
2023/04/03 09:23:36;;;;;;;1.57;1.47;;;;;;;;;;5095841;28;20231;-86
2023/04/03 09:26:07;;;;;;;0.97;0.97;;;;;;;;;;5093674;28;20451;-83
2023/04/03 09:28:41;;;;;;;1.33;1.10;;;;;;;;;;5099341;28;20201;-83
2023/04/03 09:31:22;;;;;;;1.87;1.20;;;;;;;;;;5096668;28;20204;-83
2023/04/03 09:33:51;;;;;;;3.33;1.00;;;;;;;;;;5096587;28;20209;-83
2023/04/03 09:36:37;;;;;;;1.20;1.20;;;;;;;;;;5094796;28;20299;-85
2023/04/03 09:39:07;;;;;;;1.10;1.10;;;;;;;;;;5085243;28;20212;-83
2023/04/03 09:41:42;;;;;;;1.57;1.47;;;;;;;;;;5098733;28;20290;-84
2023/04/03 09:44:27;;;;;;;1.70;1.30;;;;;;;;;;5090438;28;20196;-82
2023/04/03 09:46:55;;;;;;;2.80;1.33;;;;;;;;;;5095656;28;20212;-82
2023/04/03 09:49:24;;;;;;;2.73;1.50;;;;;;;;;;5100681;28;20209;-84
2023/04/03 09:51:53;;;;;;;2.97;1.30;;;;;;;;;;5096339;28;20233;-83
2023/04/03 09:54:32;;;;;;;1.50;1.40;;;;;;;;;;5092057;28;20212;-86
2023/04/03 09:57:03;;;;;;;1.10;1.10;;;;;;;;;;5099570;28;20206;-83
2023/04/03 09:59:35;;;;;;;2.20;1.33;;;;;;;;;;5094064;28;20211;-84
2023/04/03 10:02:05;;;;;;;1.83;1.30;;;;;;;;;;5092363;28;20250;-83
2023/04/03 10:04:41;;;;;;;1.53;1.43;;;;;;;;;;5092948;28;20226;-84
2023/04/03 10:07:33;;;;;;;3.77;2.17;;;;;;;;;;5090050;28;20254;-85
2023/04/03 10:10:19;;;;;;;2.00;1.37;;;;;;;;;;5096314;28;20208;-85
2023/04/03 10:13:05;;;;;;;1.97;1.87;;;;;;;;;;5094069;28;20205;-86
2023/04/03 10:15:39;;;;;;;1.57;1.43;;;;;;;;;;5097765;27;20209;-86
2023/04/03 10:18:10;;;;;;;1.73;1.47;;;;;;;;;;5091333;28;20217;-86
2023/04/03 10:20:53;;;;;;;1.27;1.27;;;;;;;;;;5094125;28;20206;-84
2023/04/03 10:23:23;;;;;;;3.20;1.37;;;;;;;;;;5088140;28;21727;-84
2023/04/03 10:25:57;;;;;;;1.73;1.63;;;;;;;;;;5096185;28;20229;-86
2023/04/03 10:28:32;;;;;;;3.03;1.63;;;;;;;;;;5095761;28;20297;-84
2023/04/03 10:31:06;;;;;;;1.33;1.23;;;;;;;;;;5094947;28;20205;-84
2023/04/03 10:33:41;;;;;;;1.60;1.50;;;;;;;;;;5092530;28;20275;-85
2023/04/03 10:36:15;;;;;;;1.90;1.50;;;;;;;;;;5090220;28;20204;-83
2023/04/03 10:38:49;;;;;;;3.00;1.60;;;;;;;;;;5091903;28;20206;-86
2023/04/03 10:41:22;;;;;;;1.57;1.47;;;;;;;;;;5097619;28;20209;-85
2023/04/03 10:44:00;;;;;;;1.23;1.13;;;;;;;;;;5096927;28;20212;-84
2023/04/03 10:46:33;;;;;;;5.73;1.47;;;;;;;;;;5090753;28;20226;-85
2023/04/03 10:49:10;;;;;;;3.10;1.60;;;;;;;;;;5097715;28;20207;-85
2023/04/03 10:51:43;;;;;;;1.83;1.40;;;;;;;;;;5093697;28;20273;-85
2023/04/03 10:54:13;;;;;;;1.63;1.40;;;;;;;;;;5091020;28;20205;-83
2023/04/03 10:56:45;;;;;;;1.37;1.27;;;;;;;;;;5092039;28;20194;-85
2023/04/03 10:59:24;;;;;;;6.77;1.93;;;;;;;;;;5092905;28;20307;-85
2023/04/03 11:01:57;;;;;;;1.23;1.13;;;;;;;;;;5092873;28;20212;-83
2023/04/03 11:04:29;;;;;;;1.70;1.33;;;;;;;;;;5091350;28;20211;-85
2023/04/03 11:07:00;;;;;;;0.87;0.87;;;;;;;;;;5092908;28;20308;-84
2023/04/03 11:09:31;;;;;;;1.50;1.40;;;;;;;;;;5099269;28;20194;-86
2023/04/03 11:12:06;;;;;;;3.00;1.50;;;;;;;;;;5101851;28;20221;-87
2023/04/03 11:14:37;;;;;;;1.43;1.33;;;;;;;;;;5099652;28;20207;-88
2023/04/03 11:17:16;;;;;;;0.90;0.90;;;;;;;;;;5108243;28;20244;-88
2023/04/03 11:19:46;;;;;;;2.13;1.97;;;;;;;;;;5108505;28;20219;-89
2023/04/03 11:22:20;;;;;;;2.10;1.20;;;;;;;;;;5104440;28;20198;-89
2023/04/03 11:24:59;;;;;;;1.40;1.30;;;;;;;;;;5100522;28;20264;-87
2023/04/03 11:27:30;;;;;;;1.20;1.20;;;;;;;;;;5104558;28;20201;-89
2023/04/03 11:30:01;;;;;;;1.30;1.20;;;;;;;;;;5106072;28;20264;-86
2023/04/03 11:32:36;;;;;;;2.70;1.43;;;;;;;;;;5107869;28;20202;-86
2023/04/03 11:35:07;;;;;;;1.20;1.20;;;;;;;;;;5106622;28;20240;-86
2023/04/03 11:37:36;;;;;;;1.63;1.53;;;;;;;;;;5106217;28;20263;-89
2023/04/03 11:40:08;;;;;;;1.60;1.50;;;;;;;;;;5105178;28;20203;-90
2023/04/03 11:42:38;;;;;;;1.90;1.20;;;;;;;;;;5103333;28;20202;-88
2023/04/03 11:45:27;;;;;;;1.40;1.30;;;;;;;;;;5108836;28;20206;-87
2023/04/03 11:47:58;;;;;;;1.10;1.10;;;;;;;;;;5103827;28;20214;-88
2023/04/03 11:50:44;;;;;;;3.10;1.93;;;;;;;;;;5109238;28;20222;-87
2023/04/03 11:53:34;;;;;;;2.47;1.10;;;;;;;;;;5107582;28;20204;-89
2023/04/03 11:56:26;;;;;;;1.30;1.20;;;;;;;;;;5104064;28;20262;-86
2023/04/03 11:59:18;;;;;;;1.43;1.33;;;;;;;;;;5104033;28;20242;-90
2023/04/03 12:01:51;;;;;;;1.50;1.40;;;;;;;;;;5098948;28;20243;-87
2023/04/03 12:04:21;;;;;;;1.10;1.10;;;;;;;;;;5095573;28;20211;-84
2023/04/03 12:07:00;;;;;;;1.03;0.97;;;;;;;;;;5091122;28;20228;-86
2023/04/03 12:09:31;;;;;;;1.87;1.67;;;;;;;;;;5101757;28;20216;-84
2023/04/03 12:12:01;;;;;;;2.07;1.30;;;;;;;;;;5098273;28;20240;-84
2023/04/03 12:14:30;;;;;;;0.90;0.90;;;;;;;;;;5100410;28;20232;-83
2023/04/03 12:17:02;;;;;;;1.00;1.00;;;;;;;;;;5098424;28;20203;-84
2023/04/03 12:19:33;;;;;;;1.17;1.10;;;;;;;;;;5099671;28;20496;-84
2023/04/03 12:22:12;;;;;;;2.43;1.10;;;;;;;;;;5103927;28;20209;-86
2023/04/03 12:24:42;;;;;;;1.33;1.23;;;;;;;;;;5102025;28;20234;-87
2023/04/03 12:27:41;;;;;;;1.07;1.07;;;;;;;;;;5096633;28;20226;-85
2023/04/03 12:30:27;;;;;;;1.00;1.00;;;;;;;;;;5052687;28;20347;-88
2023/04/03 12:33:20;;;;;;;5.93;1.43;;;;;;;;;;5096099;28;20214;-87
2023/04/03 12:35:56;;;;;;;3.03;1.33;;;;;;;;;;5104203;28;20201;-87
2023/04/03 12:38:45;;;;;;;0.90;0.80;;;;;;;;;;5095375;28;20203;-86
2023/04/03 12:41:21;;;;;;;1.10;1.10;;;;;;;;;;5096860;28;20239;-85
2023/04/03 12:43:56;;;;;;;1.40;1.10;;;;;;;;;;5095887;28;20207;-84
2023/04/03 12:46:25;;;;;;;1.77;1.07;;;;;;;;;;5099405;28;20223;-87
2023/04/03 12:49:00;;;;;;;1.30;1.20;;;;;;;;;;5103407;28;20211;-85
2023/04/03 12:51:33;;;;;;;2.47;1.40;;;;;;;;;;5096959;28;20211;-86
2023/04/03 12:54:05;;;;;;;0.80;0.80;;;;;;;;;;5095469;28;20248;-84
2023/04/03 12:56:36;;;;;;;0.97;0.97;;;;;;;;;;5098124;28;20487;-88
2023/04/03 12:59:15;;;;;;;0.90;0.90;;;;;;;;;;5095653;28;20197;-85
2023/04/03 13:01:44;;;;;;;0.97;0.97;;;;;;;;;;5101223;28;20269;-84
2023/04/03 13:04:14;;;;;;;1.37;1.20;;;;;;;;;;5108341;28;20190;-84
2023/04/03 13:06:44;;;;;;;0.80;0.80;;;;;;;;;;5101284;27;20376;-86
2023/04/03 13:09:21;;;;;;;1.70;1.37;;;;;;;;;;5101869;28;20211;-85
2023/04/03 13:11:51;;;;;;;2.83;1.00;;;;;;;;;;5095940;28;20211;-86
2023/04/03 13:14:20;;;;;;;1.27;1.27;;;;;;;;;;5099144;28;20304;-84
2023/04/03 13:16:56;;;;;;;3.20;1.20;;;;;;;;;;5101688;28;20215;-85
2023/04/03 13:19:26;;;;;;;0.90;0.90;;;;;;;;;;5096630;28;20207;-85
2023/04/03 13:22:01;;;;;;;2.13;1.40;;;;;;;;;;5105866;28;20199;-88
2023/04/03 13:24:30;;;;;;;1.53;1.43;;;;;;;;;;5100148;28;20242;-84
2023/04/03 13:26:59;;;;;;;1.27;1.17;;;;;;;;;;5097684;28;20326;-85
2023/04/03 13:29:29;;;;;;;2.30;1.30;;;;;;;;;;5099544;28;20247;-85
2023/04/03 13:31:59;;;;;;;0.90;0.90;;;;;;;;;;5097521;28;20228;-85
2023/04/03 13:34:38;;;;;;;2.37;1.60;;;;;;;;;;5103745;28;20255;-84
2023/04/03 13:37:07;;;;;;;2.10;1.27;;;;;;;;;;5102921;28;20270;-87
2023/04/03 13:39:40;;;;;;;2.40;1.60;;;;;;;;;;5103354;28;20225;-84
2023/04/03 13:42:26;;;;;;;1.20;1.20;;;;;;;;;;5100700;28;20203;-85
2023/04/03 13:45:10;;;;;;;1.90;1.27;;;;;;;;;;5094556;28;20284;-80
2023/04/03 13:47:40;;;;;;;3.03;1.43;;;;;;;;;;5094323;28;20214;-80
2023/04/03 13:50:17;;;;;;;1.47;1.37;;;;;;;;;;5091757;28;20203;-80
2023/04/03 13:52:47;;;;;;;1.20;1.20;;;;;;;;;;5094943;28;20249;-83
2023/04/03 13:55:21;;;;;;;0.90;0.90;;;;;;;;;;5099656;28;20203;-82
2023/04/03 13:57:55;;;;;;;1.83;1.73;;;;;;;;;;5100314;28;20282;-82
2023/04/03 14:00:30;;;;;;;1.20;1.20;;;;;;;;;;5095095;28;20262;-82
2023/04/03 14:03:01;;;;;;;1.00;1.00;;;;;;;;;;5095280;28;20228;-85
2023/04/03 14:05:31;;;;;;;1.47;1.37;;;;;;;;;;5096078;28;20237;-83
2023/04/03 14:08:01;;;;;;;1.40;1.30;;;;;;;;;;5095162;28;20222;-82
2023/04/03 14:10:32;;;;;;;1.67;1.50;;;;;;;;;;5096369;28;20208;-82
2023/04/03 14:13:00;;;;;;;1.47;1.37;;;;;;;;;;5103898;28;20280;-82
2023/04/03 14:15:31;;;;;;;1.47;1.37;;;;;;;;;;5095422;28;20201;-82
2023/04/03 14:17:59;;;;;;;1.97;1.60;;;;;;;;;;5100870;28;20215;-83
2023/04/03 14:20:33;;;;;;;1.57;1.40;;;;;;;;;;5099252;28;20214;-82
2023/04/03 14:23:02;;;;;;;1.73;1.30;;;;;;;;;;5097068;28;20207;-81
2023/04/03 14:25:31;;;;;;;1.03;1.03;;;;;;;;;;5099433;28;20215;-81
2023/04/03 14:28:00;;;;;;;1.30;1.03;;;;;;;;;;5098977;28;20217;-81
2023/04/03 14:30:30;;;;;;;2.13;1.70;;;;;;;;;;5104220;28;20294;-81
2023/04/03 14:32:59;;;;;;;4.97;1.50;;;;;;;;;;5103897;28;20199;-81
2023/04/03 14:35:29;;;;;;;1.60;1.50;;;;;;;;;;5106295;28;20287;-81
2023/04/03 14:38:01;;;;;;;2.57;1.80;;;;;;;;;;5097539;28;20191;-81
2023/04/03 14:40:30;;;;;;;1.67;1.30;;;;;;;;;;5092885;28;20218;-82
2023/04/03 14:43:03;;;;;;;3.10;1.77;;;;;;;;;;5096623;28;20195;-81
2023/04/03 14:45:31;;;;;;;1.53;1.33;;;;;;;;;;5090640;28;20229;-81
2023/04/03 14:48:00;;;;;;;6.00;2.07;;;;;;;;;;5092147;28;20302;-82
2023/04/03 14:50:31;;;;;;;5.30;1.80;;;;;;;;;;5089619;28;20211;-81
2023/04/03 14:53:01;;;;;;;1.23;1.17;;;;;;;;;;5090516;28;20229;-81
2023/04/03 14:55:31;;;;;;;1.20;1.20;;;;;;;;;;5091961;28;20212;-81
2023/04/03 14:58:00;;;;;;;2.53;1.60;;;;;;;;;;5094261;28;20199;-82
2023/04/03 15:00:29;;;;;;;1.40;1.30;;;;;;;;;;5094446;28;20238;-82
2023/04/03 15:03:04;;;;;;;2.37;2.07;;;;;;;;;;5093429;28;20198;-82
2023/04/03 15:05:33;;;;;;;1.30;1.30;;;;;;;;;;5092445;28;20222;-82